Time;durP1;ratioP1;P1;durP2;ratioP2;P2;SDS_P1;SDS_P2;PMS_P1;PMS_P2;Temp;Humidity;BMP_temperature;BMP_pressure;BME280_temperature;BME280_humidity;BME280_pressure;Samples;Min_cycle;Max_cycle;Signal;HPM_P1;HPM_P2
2022/05/03 00:02:18;;;;;;;13.15;9.68;;;;;;;14.70;59.27;101320.97;4760548;29;121371;-78
2022/05/03 00:04:52;;;;;;;15.90;8.57;;;;;;;14.75;59.32;101327.88;4780909;29;119921;-78
2022/05/03 00:07:33;;;;;;;18.35;11.43;;;;;;;14.77;59.68;101324.63;4793421;29;120001;-78
2022/05/03 00:10:07;;;;;;;16.77;10.95;;;;;;;14.80;59.45;101332.00;4778379;29;119548;-78
2022/05/03 00:12:39;;;;;;;16.02;11.30;;;;;;;14.74;59.09;101318.81;4777245;29;119759;-78
2022/05/03 00:15:06;;;;;;;18.88;12.85;;;;;;;14.79;59.25;101324.94;4779723;29;120024;-79
2022/05/03 00:17:33;;;;;;;19.65;13.05;;;;;;;14.74;59.33;101313.28;4778841;29;121107;-78
2022/05/03 00:20:03;;;;;;;22.65;13.68;;;;;;;14.79;59.76;101327.69;4766084;29;121933;-78
2022/05/03 00:22:29;;;;;;;16.75;11.32;;;;;;;14.79;59.93;101322.19;4773857;29;124025;-78
2022/05/03 00:24:55;;;;;;;26.17;15.75;;;;;;;14.84;60.04;101327.06;4779554;29;119720;-77
2022/05/03 00:27:25;;;;;;;22.05;15.43;;;;;;;14.83;59.72;101320.00;4789406;29;122418;-79
2022/05/03 00:29:53;;;;;;;25.83;18.42;;;;;;;14.87;59.85;101324.13;4807309;29;119802;-78
2022/05/03 00:32:21;;;;;;;25.63;16.83;;;;;;;14.90;59.95;101316.91;4786106;29;120126;-79
2022/05/03 00:34:48;;;;;;;29.45;19.88;;;;;;;14.91;59.82;101321.25;4789548;29;120698;-79
2022/05/03 00:37:14;;;;;;;31.70;20.95;;;;;;;14.92;59.80;101320.00;4789112;29;119572;-79
2022/05/03 00:39:42;;;;;;;23.73;17.23;;;;;;;14.89;60.05;101313.38;4789172;29;122444;-78
2022/05/03 00:42:29;;;;;;;28.58;21.05;;;;;;;14.95;60.01;101310.78;4776729;29;123130;-79
2022/05/03 00:45:14;;;;;;;36.28;23.90;;;;;;;14.94;59.90;101307.25;4778122;29;119964;-78
2022/05/03 00:47:53;;;;;;;35.70;23.52;;;;;;;14.93;60.28;101316.78;4793511;29;119396;-78
2022/05/03 00:50:37;;;;;;;32.33;22.55;;;;;;;14.94;60.47;101318.31;4780377;29;123443;-78
2022/05/03 00:53:08;;;;;;;31.60;21.17;;;;;;;14.92;60.47;101311.72;4778131;29;121817;-78
2022/05/03 00:55:51;;;;;;;39.60;24.98;;;;;;;14.91;61.06;101305.44;4782726;29;119809;-78
2022/05/03 00:58:36;;;;;;;40.72;26.05;;;;;;;14.85;61.24;101306.50;4795417;29;119669;-78
2022/05/03 01:01:08;;;;;;;30.02;20.88;;;;;;;14.93;61.24;101318.78;4773406;29;122154;-78
2022/05/03 01:03:48;;;;;;;36.70;25.80;;;;;;;14.92;61.64;101315.25;4776481;29;121288;-78
2022/05/03 01:06:35;;;;;;;37.60;23.48;;;;;;;14.92;61.70;101308.97;4778247;29;119621;-78
2022/05/03 01:09:05;;;;;;;39.20;25.23;;;;;;;14.95;61.59;101308.03;4788430;29;119705;-78
2022/05/03 01:11:40;;;;;;;41.17;28.15;;;;;;;14.91;61.86;101304.66;4772997;29;122761;-78
2022/05/03 01:14:31;;;;;;;40.58;26.90;;;;;;;14.90;61.73;101319.69;4780685;29;119716;-78
2022/05/03 01:17:22;;;;;;;38.83;24.90;;;;;;;14.84;62.23;101318.78;4776236;29;120324;-78
2022/05/03 01:20:04;;;;;;;38.90;23.60;;;;;;;14.73;62.67;101306.25;4790479;29;119590;-78
2022/05/03 01:22:57;;;;;;;32.92;22.55;;;;;;;14.76;62.25;101320.34;4780944;29;122551;-78
2022/05/03 01:25:29;;;;;;;31.30;22.00;;;;;;;14.72;62.54;101315.75;4770163;29;123265;-79
2022/05/03 01:28:05;;;;;;;29.63;20.13;;;;;;;14.70;62.84;101311.94;4810072;29;119544;-78
2022/05/03 01:30:33;;;;;;;31.77;21.63;;;;;;;14.65;62.56;101316.06;4767405;29;121742;-79
2022/05/03 01:33:08;;;;;;;34.78;21.40;;;;;;;14.64;62.32;101305.47;4777139;29;123459;-79
2022/05/03 01:35:39;;;;;;;33.97;20.65;;;;;;;14.65;62.24;101310.53;4793671;29;119803;-78
2022/05/03 01:38:14;;;;;;;28.10;19.42;;;;;;;14.64;62.34;101313.75;4803105;29;119718;-79
2022/05/03 01:41:12;;;;;;;30.30;20.02;;;;;;;14.62;62.37;101314.22;4794677;29;120040;-78
2022/05/03 01:44:03;;;;;;;25.50;18.52;;;;;;;14.59;62.55;101312.38;4778890;29;124078;-78
2022/05/03 01:46:34;;;;;;;30.25;18.75;;;;;;;14.56;61.98;101318.84;4778802;29;120431;-78
2022/05/03 01:52:52;;;;;;;26.55;16.52;;;;;;;14.53;62.13;101308.72;4787474;29;120261;-78
2022/05/03 01:55:33;;;;;;;25.33;16.38;;;;;;;14.52;62.03;101312.72;4778002;29;122202;-78
2022/05/03 01:58:17;;;;;;;23.55;17.00;;;;;;;14.46;62.30;101292.50;4794924;29;119415;-78
2022/05/03 02:00:57;;;;;;;20.10;15.40;;;;;;;14.51;62.06;101304.91;4780769;29;119988;-78
2022/05/03 02:03:50;;;;;;;24.30;15.18;;;;;;;14.49;61.67;101308.13;4797400;29;120405;-78
2022/05/03 02:06:29;;;;;;;26.58;15.52;;;;;;;14.38;61.78;101294.75;4793783;29;122469;-78
2022/05/03 02:09:04;;;;;;;20.38;13.82;;;;;;;14.47;61.93;101312.56;4796792;29;123742;-78
2022/05/03 02:11:33;;;;;;;19.73;13.38;;;;;;;14.45;61.75;101307.53;4773498;29;119581;-78
2022/05/03 02:17:19;;;;;;;17.38;10.88;;;;;;;14.43;61.34;101310.75;4788898;29;120309;-78
2022/05/03 02:19:51;;;;;;;;;;;;;;;14.37;61.12;101312.53;4777985;29;120255;-79
2022/05/03 02:22:22;;;;;;;18.48;9.13;;;;;;;14.35;60.92;101316.97;4780972;29;119883;-78
2022/05/03 02:25:01;;;;;;;19.10;9.30;;;;;;;14.28;60.39;101306.25;4782641;29;123554;-78
2022/05/03 02:27:31;;;;;;;15.65;8.05;;;;;;;14.31;60.59;101310.84;4775224;29;122939;-79
2022/05/03 02:29:58;;;;;;;21.65;8.32;;;;;;;14.26;59.75;101311.47;4776819;29;123702;-78
2022/05/03 02:32:34;;;;;;;18.58;7.47;;;;;;;14.12;59.56;101308.09;4775908;29;120866;-78
2022/05/03 02:35:06;;;;;;;21.48;7.53;;;;;;;14.09;59.39;101302.72;4778297;29;122268;-79
2022/05/03 02:37:42;;;;;;;20.98;7.07;;;;;;;14.12;59.16;101323.88;4776609;29;120456;-78
2022/05/03 02:40:12;;;;;;;16.25;6.13;;;;;;;14.05;58.48;101327.72;4795394;29;119805;-78
2022/05/03 02:42:41;;;;;;;17.85;6.43;;;;;;;13.87;58.63;101307.63;4760827;29;122064;-78
2022/05/03 02:45:08;;;;;;;17.65;6.88;;;;;;;13.92;58.51;101326.31;4758694;29;122757;-78
2022/05/03 02:47:51;;;;;;;21.10;6.35;;;;;;;13.87;58.70;101330.44;4766620;29;120857;-78
2022/05/03 02:50:22;;;;;;;20.93;6.23;;;;;;;13.81;58.01;101329.53;4774021;29;122526;-78
2022/05/03 02:53:02;;;;;;;25.77;6.65;;;;;;;13.68;58.31;101317.84;4788041;29;120319;-78
2022/05/03 02:55:40;;;;;;;20.52;5.78;;;;;;;13.66;58.09;101325.81;4773675;29;122729;-78
2022/05/03 02:58:25;;;;;;;16.15;5.18;;;;;;;13.54;57.40;101329.47;4790950;29;120304;-78
2022/05/03 03:04:10;;;;;;;14.95;4.78;;;;;;;13.41;56.77;101327.56;4776202;29;120029;-78
2022/05/03 03:06:41;;;;;;;17.98;5.43;;;;;;;13.36;56.45;101325.41;4775670;29;120342;-78
2022/05/03 03:09:07;;;;;;;20.60;5.13;;;;;;;13.33;56.89;101331.84;4792768;29;120723;-79
2022/05/03 03:12:11;;;;;;;18.60;5.72;;;;;;;13.26;56.82;101334.88;4778170;29;122317;-78
2022/05/03 03:14:46;;;;;;;16.67;5.33;;;;;;;13.23;56.80;101332.22;4776345;29;121705;-78
2022/05/03 03:17:20;;;;;;;17.70;5.25;;;;;;;13.16;56.78;101327.75;4776746;29;122255;-78
2022/05/03 03:19:49;;;;;;;;;;;;;;;13.17;57.02;101335.59;4790618;29;121533;-78
2022/05/03 03:22:20;;;;;;;18.50;5.05;;;;;;;13.20;56.93;101326.41;4776066;29;119940;-78
2022/05/03 03:24:48;;;;;;;20.00;5.20;;;;;;;13.13;57.04;101323.91;4761333;29;121957;-78
2022/05/03 03:27:14;;;;;;;16.13;4.70;;;;;;;13.14;56.64;101327.44;4792446;29;122373;-78
2022/05/03 03:29:41;;;;;;;20.50;5.10;;;;;;;13.14;56.57;101325.44;4780198;29;119720;-78
2022/05/03 03:32:09;;;;;;;16.77;4.85;;;;;;;13.11;56.64;101333.84;4778402;29;120215;-78
2022/05/03 03:34:37;;;;;;;20.50;5.57;;;;;;;13.01;56.58;101327.53;4775821;29;122304;-79
2022/05/03 03:37:06;;;;;;;17.67;5.15;;;;;;;13.02;56.87;101339.31;4771868;29;121791;-79
2022/05/03 03:39:32;;;;;;;20.40;5.30;;;;;;;13.00;56.99;101337.00;4793615;29;119845;-78
2022/05/03 03:42:05;;;;;;;23.02;5.00;;;;;;;12.99;56.65;101329.94;4792515;29;119442;-78
2022/05/03 03:44:32;;;;;;;21.58;5.40;;;;;;;12.89;57.23;101322.88;4794232;29;119943;-78
2022/05/03 03:46:59;;;;;;;18.75;4.82;;;;;;;12.91;56.71;101329.44;4778126;29;122886;-79
2022/05/03 03:49:30;;;;;;;14.35;4.75;;;;;;;12.97;57.10;101345.38;4781262;29;120865;-78
2022/05/03 03:52:06;;;;;;;19.15;5.00;;;;;;;12.87;57.07;101328.06;4779508;29;119901;-78
2022/05/03 03:54:35;;;;;;;21.85;5.47;;;;;;;12.91;56.96;101340.47;4789943;29;121013;-78
2022/05/03 03:57:01;;;;;;;22.67;5.47;;;;;;;12.87;56.98;101339.84;4782284;29;119956;-79
2022/05/03 03:59:30;;;;;;;20.88;5.13;;;;;;;12.78;57.21;101337.03;4789834;29;120564;-78
2022/05/03 04:02:00;;;;;;;18.55;5.20;;;;;;;12.76;56.69;101333.19;4790167;29;119565;-78
2022/05/03 04:04:31;;;;;;;18.17;5.10;;;;;;;12.77;56.93;101345.72;4795237;29;119684;-78
2022/05/03 04:06:58;;;;;;;19.45;5.40;;;;;;;12.74;57.30;101347.38;4777409;29;122026;-78
2022/05/03 04:09:23;;;;;;;21.48;5.20;;;;;;;12.73;57.30;101343.09;4804384;29;119953;-79
2022/05/03 04:11:49;;;;;;;23.45;5.25;;;;;;;12.61;56.83;101332.94;4787756;29;120215;-78
2022/05/03 04:14:18;;;;;;;22.65;5.07;;;;;;;12.64;56.73;101348.56;4777894;29;121696;-78
2022/05/03 04:16:43;;;;;;;23.23;5.28;;;;;;;12.57;56.50;101340.56;4811662;29;119817;-78
2022/05/03 04:19:11;;;;;;;20.75;5.10;;;;;;;12.63;56.75;101352.53;4799506;29;120639;-78
2022/05/03 04:21:37;;;;;;;23.25;5.15;;;;;;;12.55;56.65;101340.25;4786066;29;120657;-78
2022/05/03 04:24:03;;;;;;;19.80;4.18;;;;;;;12.57;56.68;101355.09;4782125;29;122281;-78
2022/05/03 04:26:28;;;;;;;25.70;5.13;;;;;;;12.54;57.12;101349.72;4790048;29;120105;-78
2022/05/03 04:29:01;;;;;;;21.98;4.70;;;;;;;12.51;56.56;101348.59;4778314;29;119455;-79
2022/05/03 04:31:29;;;;;;;22.98;5.88;;;;;;;12.52;57.08;101360.38;4772132;29;121172;-79
2022/05/03 04:33:55;;;;;;;23.13;5.47;;;;;;;12.44;56.41;101339.84;4777459;29;123221;-78
2022/05/03 04:36:21;;;;;;;25.75;5.07;;;;;;;12.48;56.90;101346.75;4779142;29;119557;-78
2022/05/03 04:38:50;;;;;;;23.02;5.28;;;;;;;12.45;56.96;101344.91;4781513;29;121086;-78
2022/05/03 04:41:15;;;;;;;22.05;5.40;;;;;;;12.41;57.03;101343.50;4775614;29;120265;-78
2022/05/03 04:43:41;;;;;;;25.75;5.25;;;;;;;12.45;56.96;101346.88;4803487;29;120444;-79
2022/05/03 04:46:07;;;;;;;24.30;5.20;;;;;;;12.42;56.64;101348.53;4795478;29;120505;-79
2022/05/03 04:48:33;;;;;;;24.20;4.97;;;;;;;12.32;56.41;101335.19;4787602;29;119814;-78
2022/05/03 04:50:59;;;;;;;18.40;4.55;;;;;;;12.38;56.41;101352.63;4797660;29;119432;-78
2022/05/03 04:53:25;;;;;;;22.50;5.32;;;;;;;12.39;56.38;101348.66;4777949;29;120079;-79
2022/05/03 04:55:50;;;;;;;18.90;4.95;;;;;;;12.40;56.24;101361.97;4798604;29;120720;-79
2022/05/03 04:58:16;;;;;;;20.20;5.47;;;;;;;12.33;56.24;101361.47;4778084;29;119364;-79
2022/05/03 05:00:42;;;;;;;17.25;4.60;;;;;;;12.35;56.41;101353.53;4795304;29;120207;-78
2022/05/03 05:03:08;;;;;;;20.90;4.70;;;;;;;12.41;56.04;101355.25;4777256;29;121219;-79
2022/05/03 05:05:34;;;;;;;21.70;4.63;;;;;;;12.42;55.91;101364.28;4792401;29;119915;-78
2022/05/03 05:08:04;;;;;;;20.70;4.95;;;;;;;12.46;55.78;101364.94;4810142;29;119627;-78
2022/05/03 05:10:32;;;;;;;18.50;4.45;;;;;;;12.42;55.82;101361.53;4796893;29;120333;-78
2022/05/03 05:13:00;;;;;;;19.92;5.10;;;;;;;12.47;55.63;101361.72;4790472;29;120071;-79
2022/05/03 05:15:28;;;;;;;23.50;5.00;;;;;;;12.51;55.47;101367.88;4780688;29;119632;-78
2022/05/03 05:17:56;;;;;;;23.98;5.50;;;;;;;12.54;55.75;101367.00;4779754;29;121558;-79
2022/05/03 05:20:27;;;;;;;18.15;4.82;;;;;;;12.60;55.73;101375.44;4764209;29;123606;-78
2022/05/03 05:22:53;;;;;;;20.20;4.60;;;;;;;12.63;55.64;101374.53;4784452;29;120188;-78
2022/05/03 05:25:19;;;;;;;20.45;4.70;;;;;;;12.64;55.71;101364.31;4780743;29;123631;-78
2022/05/03 05:27:45;;;;;;;18.55;3.85;;;;;;;12.61;55.18;101360.47;4781107;29;120251;-78
2022/05/03 05:30:11;;;;;;;21.50;4.75;;;;;;;12.69;54.84;101375.50;4751181;29;121910;-78
2022/05/03 05:32:37;;;;;;;17.70;4.22;;;;;;;12.63;54.87;101360.78;4799562;29;120066;-78
2022/05/03 05:35:04;;;;;;;20.85;4.18;;;;;;;12.64;54.67;101364.31;4778996;29;121280;-79
2022/05/03 05:37:32;;;;;;;17.48;4.03;;;;;;;12.71;54.46;101381.31;4779970;29;119687;-79
2022/05/03 05:39:58;;;;;;;19.25;4.13;;;;;;;12.73;54.66;101367.88;4763568;29;122010;-79
2022/05/03 05:42:30;;;;;;;20.10;4.15;;;;;;;12.79;54.23;101376.34;4779760;29;120674;-79
2022/05/03 05:44:55;;;;;;;15.85;3.92;;;;;;;12.84;53.93;101387.53;4787724;29;119505;-78
2022/05/03 05:47:22;;;;;;;16.38;3.92;;;;;;;12.85;53.84;101375.31;4779488;29;120320;-79
2022/05/03 05:49:47;;;;;;;20.05;4.30;;;;;;;12.91;53.54;101370.75;4778068;29;122714;-78
2022/05/03 05:54:57;;;;;;;;;;;;;;;13.02;53.70;101381.41;4780564;29;120041;-78
2022/05/03 05:57:26;;;;;;;22.85;4.65;;;;;;;13.05;52.96;101366.72;4781723;29;120481;-78
2022/05/03 05:59:51;;;;;;;22.38;4.38;;;;;;;13.14;52.88;101363.25;4762944;29;123114;-78
2022/05/03 06:02:17;;;;;;;19.88;4.18;;;;;;;13.22;51.54;101367.28;4780276;29;119494;-79
2022/05/03 06:04:42;;;;;;;21.40;4.25;;;;;;;13.19;51.68;101366.19;4794936;29;120019;-78
2022/05/03 06:07:10;;;;;;;18.15;4.30;;;;;;;13.12;51.88;101365.69;4785219;29;119841;-79
2022/05/03 06:09:36;;;;;;;20.58;4.03;;;;;;;13.10;52.31;101359.84;4795136;29;119859;-79
2022/05/03 06:12:05;;;;;;;21.88;4.53;;;;;;;13.12;52.01;101357.41;4780556;29;121209;-78
2022/05/03 06:14:34;;;;;;;21.27;3.97;;;;;;;13.20;51.84;101372.47;4796587;29;120134;-78
2022/05/03 06:17:00;;;;;;;20.48;3.90;;;;;;;13.16;51.81;101363.56;4813529;29;119493;-79
2022/05/03 06:19:28;;;;;;;22.90;4.30;;;;;;;13.29;52.11;101382.78;4785346;29;123795;-78
2022/05/03 06:21:54;;;;;;;20.30;4.22;;;;;;;13.34;51.53;101373.94;4801643;29;119834;-79
2022/05/03 06:24:19;;;;;;;17.95;3.92;;;;;;;13.37;51.60;101371.03;4780660;29;122158;-78
2022/05/03 06:26:45;;;;;;;17.27;3.53;;;;;;;13.39;51.33;101376.09;4795400;29;119795;-78
2022/05/03 06:29:15;;;;;;;20.38;4.13;;;;;;;13.38;50.52;101386.34;4804315;29;119783;-78
2022/05/03 06:31:42;;;;;;;16.42;3.90;;;;;;;13.37;50.84;101376.53;4781868;29;120154;-78
2022/05/03 06:34:08;;;;;;;18.27;4.20;;;;;;;13.35;51.33;101367.19;4779135;29;120003;-78
2022/05/03 06:36:37;;;;;;;18.77;3.88;;;;;;;13.42;50.82;101375.94;4779543;29;122925;-78
2022/05/03 06:39:04;;;;;;;15.73;3.55;;;;;;;13.46;50.44;101382.09;4779139;29;122657;-78
2022/05/03 06:41:30;;;;;;;18.17;3.92;;;;;;;13.47;49.43;101375.34;4793316;29;119860;-78
2022/05/03 06:43:58;;;;;;;17.95;3.88;;;;;;;13.47;50.11;101378.09;4796802;29;119970;-78
2022/05/03 06:46:25;;;;;;;20.52;4.18;;;;;;;13.48;50.00;101378.88;4777775;29;123292;-78
2022/05/03 06:48:51;;;;;;;23.13;4.57;;;;;;;13.50;51.11;101381.97;4795412;29;120261;-78
2022/05/03 06:51:17;;;;;;;20.33;4.00;;;;;;;13.52;50.06;101371.25;4776597;29;119768;-78
2022/05/03 06:53:43;;;;;;;21.10;4.35;;;;;;;13.45;49.63;101366.00;4798569;29;120662;-78
2022/05/03 06:56:09;;;;;;;21.83;4.43;;;;;;;13.50;49.84;101374.47;4794407;29;119917;-78
2022/05/03 06:58:34;;;;;;;20.60;3.92;;;;;;;13.52;50.11;101377.53;4782521;29;123061;-78
2022/05/03 07:01:11;;;;;;;18.58;4.20;;;;;;;13.59;50.08;101379.25;4778023;29;119775;-78
2022/05/03 07:03:38;;;;;;;17.80;4.35;;;;;;;13.68;49.81;101393.03;4778192;29;121441;-77
2022/05/03 07:06:04;;;;;;;26.65;4.55;;;;;;;13.78;50.19;101388.34;4777377;29;120208;-78
2022/05/03 07:08:30;;;;;;;17.98;4.50;;;;;;;13.88;50.20;101384.38;4772670;29;120398;-79
2022/05/03 07:10:56;;;;;;;21.85;4.40;;;;;;;14.02;48.75;101394.84;4792850;29;120228;-78
2022/05/03 07:13:24;;;;;;;18.48;3.97;;;;;;;14.10;48.48;101398.81;4790248;29;120978;-78
2022/05/03 07:15:51;;;;;;;19.83;4.28;;;;;;;14.10;48.47;101396.06;4747932;29;121876;-79
2022/05/03 07:23:47;;;;;;;24.23;4.82;;;;;;;14.33;49.15;101405.75;4792626;29;120240;-78
2022/05/03 07:26:12;;;;;;;20.13;3.97;;;;;;;14.45;48.73;101392.31;4759590;29;122614;-78
2022/05/03 07:28:38;;;;;;;19.90;4.32;;;;;;;14.61;48.72;101403.81;4772730;29;120139;-78
2022/05/03 07:31:04;;;;;;;17.63;3.30;;;;;;;14.63;48.94;101401.34;4778323;29;122234;-78
2022/05/03 07:33:29;;;;;;;20.35;4.10;;;;;;;14.71;47.88;101402.59;4796649;29;119865;-78
2022/05/03 07:35:55;;;;;;;15.95;3.75;;;;;;;14.77;47.68;101404.72;4811788;29;119810;-78
2022/05/03 07:38:21;;;;;;;20.92;3.95;;;;;;;14.84;46.55;101393.34;4796265;29;120254;-78
2022/05/03 07:40:46;;;;;;;14.43;3.42;;;;;;;14.95;47.61;101399.19;4774873;29;119522;-79
2022/05/03 07:43:12;;;;;;;20.95;4.50;;;;;;;15.05;47.39;101418.03;4776664;29;119923;-78
2022/05/03 07:45:38;;;;;;;23.00;4.72;;;;;;;15.04;47.18;101412.97;4781434;29;122741;-79
2022/05/03 07:48:04;;;;;;;22.23;4.05;;;;;;;15.01;46.99;101411.91;4777818;29;119726;-79
2022/05/03 07:50:30;;;;;;;17.50;4.05;;;;;;;15.09;47.23;101408.81;4762495;29;122422;-78
2022/05/03 07:52:56;;;;;;;18.25;4.10;;;;;;;15.15;47.00;101396.69;4789306;29;120204;-79
2022/05/03 07:55:21;;;;;;;16.35;4.05;;;;;;;15.30;47.27;101410.59;4779697;29;120123;-78
2022/05/03 07:57:47;;;;;;;18.60;4.03;;;;;;;15.41;46.28;101412.88;4774601;29;119952;-79
2022/05/03 08:00:13;;;;;;;22.38;3.80;;;;;;;15.49;46.28;101430.66;4779494;29;119669;-79
2022/05/03 08:02:38;;;;;;;17.23;4.10;;;;;;;15.56;46.50;101417.28;4789794;29;120656;-79
2022/05/03 08:05:04;;;;;;;14.38;4.05;;;;;;;15.61;47.12;101408.38;4776710;29;122980;-79
2022/05/03 08:07:30;;;;;;;15.65;3.47;;;;;;;15.67;47.00;101405.75;4761064;29;119557;-78
2022/05/03 08:09:55;;;;;;;14.43;3.47;;;;;;;15.80;46.62;101411.81;4778083;29;120242;-79
2022/05/03 08:12:24;;;;;;;21.70;3.90;;;;;;;15.76;45.65;101405.69;4773549;29;122579;-79
2022/05/03 08:14:51;;;;;;;18.95;3.60;;;;;;;15.81;45.79;101424.41;4787762;29;120044;-79
2022/05/03 08:17:16;;;;;;;16.65;4.00;;;;;;;15.88;45.81;101426.84;4790368;29;122476;-79
2022/05/03 08:19:45;;;;;;;19.08;3.65;;;;;;;15.96;45.76;101422.50;4745502;29;120244;-79
2022/05/03 08:22:11;;;;;;;13.88;3.55;;;;;;;16.02;46.52;101419.06;4776665;29;119855;-79
2022/05/03 08:24:37;;;;;;;17.52;3.70;;;;;;;16.07;44.33;101423.97;4778538;29;123273;-79
2022/05/03 08:27:03;;;;;;;17.25;3.55;;;;;;;16.10;46.18;101409.22;4776177;29;119526;-79
2022/05/03 08:29:31;;;;;;;18.02;4.30;;;;;;;16.16;45.59;101410.09;4791827;29;119560;-79
2022/05/03 08:32:01;;;;;;;15.43;3.88;;;;;;;16.20;45.44;101416.22;4775207;29;122019;-78
2022/05/03 08:34:27;;;;;;;14.70;3.22;;;;;;;16.20;45.35;101399.59;4777881;29;120259;-79
2022/05/03 08:42:22;;;;;;;12.30;3.15;;;;;;;16.26;43.74;101404.00;4757573;29;122433;-79
2022/05/03 08:44:50;;;;;;;16.25;3.55;;;;;;;16.32;45.22;101417.19;4778314;29;123637;-79
2022/05/03 08:47:19;;;;;;;11.73;2.85;;;;;;;16.35;44.14;101417.03;4784430;29;120112;-79
2022/05/03 08:49:56;;;;;;;18.13;3.33;;;;;;;16.36;43.73;101418.56;4775972;29;121963;-79
2022/05/03 08:52:23;;;;;;;12.98;3.35;;;;;;;16.38;43.82;101415.31;4775649;29;120322;-79
2022/05/03 08:54:49;;;;;;;13.20;3.33;;;;;;;16.37;45.10;101406.25;4781844;29;119895;-79
2022/05/03 08:57:18;;;;;;;13.75;3.22;;;;;;;16.45;45.40;101415.72;4778879;29;122018;-79
2022/05/03 08:59:45;;;;;;;16.73;3.53;;;;;;;16.51;46.10;101413.81;4783414;29;121301;-78
2022/05/03 09:02:11;;;;;;;14.82;3.58;;;;;;;16.57;46.08;101414.72;4796463;29;121828;-79
2022/05/03 09:04:37;;;;;;;18.90;3.45;;;;;;;16.58;43.97;101409.94;4776742;29;120392;-79
2022/05/03 09:07:25;;;;;;;18.15;3.65;;;;;;;16.60;45.08;101409.47;4794828;29;120408;-79
2022/05/03 09:09:52;;;;;;;17.25;3.17;;;;;;;16.61;43.70;101419.28;4777145;29;122652;-79
2022/05/03 09:12:24;;;;;;;13.32;2.78;;;;;;;16.58;43.79;101418.25;4775507;29;122873;-79
2022/05/03 09:14:59;;;;;;;11.73;2.90;;;;;;;16.60;43.56;101417.78;4776399;29;120280;-80
2022/05/03 09:17:45;;;;;;;11.10;2.70;;;;;;;16.61;44.70;101408.22;4778675;29;120076;-79
2022/05/03 09:26:12;;;;;;;11.90;2.72;;;;;;;16.72;45.84;101422.28;4779966;29;120023;-79
2022/05/03 09:28:50;;;;;;;12.15;3.03;;;;;;;16.77;46.21;101413.31;4769884;29;120068;-79
2022/05/03 09:31:43;;;;;;;12.35;3.10;;;;;;;16.85;46.45;101409.72;4792659;29;120155;-79
2022/05/03 09:34:26;;;;;;;17.67;3.50;;;;;;;16.89;44.84;101420.63;4776995;29;123456;-79
2022/05/03 09:37:04;;;;;;;10.57;3.15;;;;;;;16.94;45.23;101411.63;4775138;29;121255;-79
2022/05/03 09:39:41;;;;;;;11.80;3.13;;;;;;;16.97;45.04;101421.75;4776899;29;121965;-79
2022/05/03 09:42:10;;;;;;;11.70;3.50;;;;;;;17.01;45.08;101416.03;4791323;29;122846;-79
2022/05/03 09:44:54;;;;;;;13.52;3.25;;;;;;;17.02;45.66;101410.00;4763807;29;119991;-79
2022/05/03 09:47:21;;;;;;;;;;;;;;;16.99;45.22;101413.72;4788467;29;122674;-79
2022/05/03 09:49:46;;;;;;;12.23;3.20;;;;;;;16.94;44.42;101403.31;4777887;29;119600;-79
2022/05/03 09:52:30;;;;;;;11.30;2.78;;;;;;;17.02;44.68;101412.75;4780135;29;121946;-79
2022/05/03 09:55:07;;;;;;;12.38;3.28;;;;;;;16.98;44.02;101406.66;4776130;29;119893;-79
2022/05/03 09:57:41;;;;;;;13.10;3.83;;;;;;;17.00;43.30;101412.47;4780505;29;120378;-79
2022/05/03 10:00:09;;;;;;;10.98;3.35;;;;;;;16.88;43.68;101396.91;4786611;29;122439;-79
2022/05/03 10:02:42;;;;;;;;;;;;;;;16.95;43.59;101415.94;4794617;29;121205;-79
2022/05/03 10:05:13;;;;;;;12.48;3.22;;;;;;;16.95;44.87;101406.84;4780578;29;119646;-79
2022/05/03 10:07:43;;;;;;;8.95;2.75;;;;;;;17.03;45.13;101408.75;4779367;29;119889;-79
2022/05/03 10:10:09;;;;;;;8.68;2.90;;;;;;;17.10;44.69;101396.53;4783536;29;123457;-78
2022/05/03 10:12:38;;;;;;;15.38;2.95;;;;;;;17.14;43.68;101402.66;4779095;29;121794;-79
2022/05/03 10:15:05;;;;;;;14.95;3.10;;;;;;;17.12;42.26;101397.59;4794220;29;123573;-79
2022/05/03 10:20:44;;;;;;;10.55;2.70;;;;;;;17.15;42.13;101396.63;4773865;29;122037;-79
2022/05/03 10:23:24;;;;;;;8.05;2.50;;;;;;;17.24;42.72;101412.38;4795787;29;120461;-79
2022/05/03 10:25:55;;;;;;;12.30;3.30;;;;;;;17.26;42.95;101403.59;4788540;29;119495;-79
2022/05/03 10:28:21;;;;;;;13.48;3.33;;;;;;;17.18;43.15;101398.44;4780029;29;121781;-79
2022/05/03 10:31:05;;;;;;;9.77;2.60;;;;;;;17.26;43.91;101398.03;4778990;29;122330;-78
2022/05/03 10:33:31;;;;;;;9.13;3.08;;;;;;;17.26;43.08;101414.69;4797912;29;119710;-79
2022/05/03 10:36:00;;;;;;;12.63;3.28;;;;;;;17.28;44.24;101401.91;4777835;29;123200;-79
2022/05/03 10:38:43;;;;;;;15.73;3.80;;;;;;;17.33;43.54;101414.31;4780443;29;120575;-79
2022/05/03 10:41:10;;;;;;;14.95;3.40;;;;;;;17.37;42.07;101414.88;4776379;29;121998;-79
2022/05/03 10:43:38;;;;;;;11.60;3.47;;;;;;;17.42;42.96;101414.19;4793448;29;119941;-79
2022/05/03 10:46:12;;;;;;;17.42;3.25;;;;;;;17.43;42.73;101410.94;4793468;29;120142;-79
2022/05/03 10:48:42;;;;;;;14.40;3.63;;;;;;;17.45;41.44;101402.13;4794273;29;119881;-79
2022/05/03 10:51:09;;;;;;;11.57;2.80;;;;;;;17.40;43.42;101391.72;4793502;29;120611;-79
2022/05/03 10:53:37;;;;;;;11.65;2.95;;;;;;;17.46;43.65;101400.88;4783324;29;119513;-79
2022/05/03 10:56:12;;;;;;;10.77;3.22;;;;;;;17.51;42.40;101389.16;4781501;29;120164;-79
2022/05/03 10:58:40;;;;;;;9.20;2.33;;;;;;;17.56;41.73;101390.47;4783559;29;119573;-79
2022/05/03 11:01:18;;;;;;;7.72;2.72;;;;;;;17.63;40.84;101403.94;4791671;29;122640;-79
2022/05/03 11:03:47;;;;;;;10.18;2.40;;;;;;;17.59;39.80;101406.91;4774726;29;122583;-79
2022/05/03 11:06:18;;;;;;;10.55;2.80;;;;;;;17.60;41.84;101393.81;4759862;29;120059;-79
2022/05/03 11:09:15;;;;;;;;;;;;;;;;;;;;;
2022/05/03 11:11:50;;;;;;;9.07;2.80;;;;;;;17.78;43.59;101379.72;4775302;29;121026;-78
2022/05/03 11:14:15;;;;;;;12.73;3.10;;;;;;;17.95;43.36;101389.03;4790875;29;120433;-79
2022/05/03 11:16:42;;;;;;;11.40;3.00;;;;;;;18.09;43.04;101393.75;4780589;29;120308;-78
2022/05/03 11:19:18;;;;;;;9.18;3.13;;;;;;;18.20;42.42;101393.13;4792256;29;120048;-79
2022/05/03 11:21:46;;;;;;;8.60;2.08;;;;;;;18.28;42.39;101401.81;4776263;29;122629;-79
2022/05/03 11:24:18;;;;;;;14.00;2.95;;;;;;;18.36;41.87;101397.34;4775088;29;123095;-79
2022/05/03 11:26:43;;;;;;;9.20;2.65;;;;;;;18.41;42.85;101383.53;4777905;29;120081;-79
2022/05/03 11:29:12;;;;;;;17.25;3.47;;;;;;;18.55;41.98;101392.28;4778131;29;121608;-79
2022/05/03 11:31:38;;;;;;;13.70;2.92;;;;;;;18.59;41.60;101395.59;4792981;29;120253;-79
2022/05/03 11:34:06;;;;;;;8.20;2.15;;;;;;;18.60;41.90;101394.34;4778066;29;120188;-79
2022/05/03 11:36:33;;;;;;;9.68;2.50;;;;;;;18.65;41.91;101397.22;4782346;29;121256;-79
2022/05/03 11:39:02;;;;;;;13.57;2.80;;;;;;;18.74;42.33;101393.53;4782986;29;120060;-79
2022/05/03 11:41:28;;;;;;;12.27;2.80;;;;;;;18.79;41.88;101390.03;4778191;29;122798;-79
2022/05/03 11:43:55;;;;;;;14.82;3.08;;;;;;;18.90;42.19;101392.91;4801030;29;120224;-80
2022/05/03 11:46:23;;;;;;;13.63;2.97;;;;;;;18.97;41.50;101389.69;4755700;29;119652;-79
2022/05/03 11:49:03;;;;;;;14.57;2.70;;;;;;;18.96;41.62;101388.19;4783195;29;121857;-79
2022/05/03 11:57:14;;;;;;;11.77;3.08;;;;;;;18.84;41.92;101397.66;4776788;29;120452;-79
2022/05/03 11:59:42;;;;;;;12.10;2.83;;;;;;;18.89;42.58;101388.59;4771500;29;122974;-79
2022/05/03 12:02:29;;;;;;;8.73;2.83;;;;;;;18.96;42.06;101395.75;4780228;29;120068;-80
2022/05/03 12:05:04;;;;;;;12.23;3.05;;;;;;;18.90;41.54;101400.47;4776743;29;120209;-79
2022/05/03 12:07:42;;;;;;;7.82;2.63;;;;;;;18.78;41.55;101405.19;4774229;29;121062;-79